Atlantic - Newfoundland: Past 24 Hour Conditions

 

Burgeo

09:30 PM NDT 23 September 2014
This table is a summary of hourly weather conditions for the past 24 hours.
Date / Time
(NDT)
Wind(knots) Conditions Visibility(km) Pressure(kPa) Air tempC) Relative humidity(%) Dew pointC)
23 September 2014
21:30 WNW 11 gust 16 N/A N/A 101.8 9 75 5
20:30 WNW 12 gust 19 N/A N/A 101.7 9 80 6
19:30 W 15 gust 20 N/A N/A 101.6 10 80 6
18:30 W 15 gust 21 N/A N/A 101.5 10 79 7
17:30 W 23 gust 28 N/A N/A 101.4 11 72 7
16:30 W 15 gust 21 N/A N/A 101.3 12 73 7
15:30 W 15 gust 23 N/A N/A 101.3 12 74 8
14:30 W 17 N/A N/A 101.2 13 71 7
13:30 W 16 gust 24 N/A N/A 101.2 12 76 8
12:30 W 15 gust 24 N/A N/A 101.1 12 77 8
11:30 W 19 gust 24 N/A N/A 101.1 13 76 9
10:30 W 18 gust 23 N/A N/A 101.0 12 80 8
9:30 W 14 gust 22 N/A N/A 101.0 12 81 8
8:30 W 13 N/A N/A 100.9 11 85 9
7:30 W 18 gust 28 N/A N/A 100.8 11 86 9
6:30 W 18 gust 24 N/A N/A 100.7 11 86 9
5:30 W 17 gust 23 N/A N/A 100.6 12 88 11
4:30 W 16 gust 24 N/A N/A 100.6 13 93 12
3:30 SW 17 N/A N/A 100.4 12 95 11
2:30 SW 19 N/A N/A 100.4 13 96 12
1:30 SW 15 gust 25 N/A N/A 100.4 13 96 13
0:30 SW 22 gust 29 N/A N/A 100.4 14 96 13
22 September 2014
23:30 SW 21 gust 27 N/A N/A 100.3 14 95 13
22:30 SW 20 gust 27 N/A N/A 100.3 14 96 13
21:30 WSW 6 N/A N/A 100.3 14 95 13
 
Map of Atlantic - Newfoundland marine weather areas Southwestern Grand Banks - 44138 Banquereau - 44139 Tail of the Bank - 44140 Nickerson Bank - 44251 Northeast Burgeo Bank - 44255 Blanc-Sablon Airport Cap Whittle Chevery Natashquan Airport Heath Point Miscou Island Grand Étang Ingonish Beach North Mountain St.Paul Island J.A. Douglas McCurdy Sydney Airport Charlottetown Airport East Point North Cape Argentia Bonavista Burgeo Cape Race Corner Brook Daniel's Harbour Englee Ferolle Point La Scie Port aux Basques Rocky Harbour Sagona Island St. Anthony Airport St. John's Int'l Airport St. Lawrence Stephenville Airport Twillingate Winterland Wreckhouse Cartwright Airport Mary's Harbour Grates Cove Pool's Island Marticot Island Long Pond Îles de la Madeleine Airport
Legend: buoyBuoy land stationLand Station